createdAt,value
2018-02-15T00:01:12.959Z,25.50
2018-02-15T00:02:49.557Z,9.50
2018-02-15T00:04:25.854Z,21.00
2018-02-15T00:06:02.619Z,15.75
2018-02-15T00:07:39.842Z,33.00
2018-02-15T00:09:16.158Z,19.25
2018-02-15T00:10:52.464Z,17.25
2018-02-15T00:12:28.784Z,12.75
2018-02-15T00:14:05.732Z,9.00
2018-02-15T00:15:42.802Z,38.75
2018-02-15T00:17:19.167Z,33.25
2018-02-15T00:18:56.376Z,18.75
2018-02-15T00:20:33.264Z,44.25
2018-02-15T00:22:10.075Z,32.75
2018-02-15T00:23:47.143Z,45.00
2018-02-15T00:25:23.415Z,17.75
2018-02-15T00:27:00.079Z,20.75
2018-02-15T00:28:36.354Z,11.00
2018-02-15T00:30:12.859Z,19.50
2018-02-15T00:31:50.716Z,25.50
2018-02-15T00:33:27.357Z,32.50
2018-02-15T00:35:03.704Z,11.00
2018-02-15T00:36:43.181Z,15.00
2018-02-15T00:38:21.694Z,25.25
2018-02-15T00:39:58.627Z,8.75
2018-02-15T00:41:57.487Z,20.00
2018-02-15T00:43:34.642Z,16.75
2018-02-15T00:45:34.375Z,8.75
2018-02-15T00:47:11.234Z,13.50
2018-02-15T00:48:47.609Z,22.50
2018-02-15T00:50:24.073Z,22.00
2018-02-15T00:52:00.852Z,40.00
2018-02-15T00:53:37.116Z,19.00
2018-02-15T00:55:40.948Z,27.75
2018-02-15T00:57:17.644Z,39.25
2018-02-15T00:58:53.937Z,28.25
2018-02-15T01:00:34.154Z,27.00
2018-02-15T01:02:10.736Z,34.50
2018-02-15T01:03:47.364Z,8.50
2018-02-15T01:05:26.124Z,27.50
2018-02-15T01:07:02.480Z,19.50
2018-02-15T01:08:39.251Z,15.25
2018-02-15T01:10:15.999Z,9.75
2018-02-15T01:11:52.237Z,21.00
2018-02-15T01:13:29.269Z,15.75
2018-02-15T01:15:05.605Z,19.25
2018-02-15T01:16:42.293Z,17.25
2018-02-15T01:18:18.872Z,16.75
2018-02-15T01:19:55.596Z,9.00
2018-02-15T01:21:32.398Z,20.50
2018-02-15T01:23:09.647Z,11.75
2018-02-15T01:24:46.035Z,11.00
2018-02-15T01:26:22.914Z,14.50
2018-02-15T01:27:59.251Z,14.50
2018-02-15T01:29:36.074Z,10.00
2018-02-15T01:31:13.269Z,10.50
2018-02-15T01:32:50.338Z,12.50
2018-02-15T01:34:26.641Z,35.25
2018-02-15T01:36:03.448Z,19.25
2018-02-15T01:37:39.776Z,17.75
2018-02-15T01:39:16.058Z,36.75
2018-02-15T01:40:52.352Z,13.25
2018-02-15T01:42:29.093Z,33.00
2018-02-15T01:44:05.842Z,38.75
2018-02-15T01:45:43.331Z,11.75
2018-02-15T01:47:21.274Z,8.00
2018-02-15T01:48:57.994Z,19.25
2018-02-15T01:50:35.001Z,20.50
2018-02-15T01:53:45.304Z,22.00
2018-02-15T01:55:21.925Z,11.00
2018-02-15T01:56:59.367Z,36.25
2018-02-15T01:58:35.760Z,16.50
2018-02-15T02:00:16.532Z,31.00
2018-02-15T02:01:53.562Z,11.00
2018-02-15T02:03:29.883Z,12.75
2018-02-15T02:05:07.030Z,26.75
2018-02-15T02:06:43.343Z,27.00
2018-02-15T02:08:20.851Z,32.00
2018-02-15T02:09:57.091Z,8.50
2018-02-15T02:11:33.472Z,19.25
2018-02-15T02:13:10.918Z,32.25
2018-02-15T02:14:47.546Z,19.50
2018-02-15T02:16:24.871Z,11.25
2018-02-15T02:18:18.110Z,7.50
2018-02-15T02:19:54.996Z,7.50
2018-02-15T02:21:44.749Z,10.75
2018-02-15T02:23:21.342Z,23.25
2018-02-15T02:24:57.966Z,30.00
2018-02-15T02:26:34.385Z,20.50
2018-02-15T02:28:10.777Z,10.50
2018-02-15T02:29:47.928Z,10.00
2018-02-15T02:31:25.921Z,23.00
2018-02-15T02:34:36.257Z,7.75
2018-02-15T02:36:13.341Z,13.00
2018-02-15T02:37:50.726Z,33.75
2018-02-15T02:39:27.162Z,18.50
2018-02-15T02:41:03.537Z,6.50
2018-02-15T02:42:39.846Z,19.25
2018-02-15T02:44:16.637Z,32.75
2018-02-15T02:45:53.134Z,29.50
2018-02-15T02:47:29.467Z,37.50
2018-02-15T02:49:05.800Z,27.50
2018-02-15T02:50:42.620Z,12.25
2018-02-15T02:52:18.988Z,8.25
2018-02-15T02:53:55.299Z,13.25
2018-02-15T02:55:32.596Z,20.75
2018-02-15T02:57:09.334Z,17.00
2018-02-15T02:58:45.663Z,23.75
2018-02-15T03:00:25.498Z,12.00
2018-02-15T03:02:02.634Z,33.00
2018-02-15T03:03:39.829Z,26.50
2018-02-15T03:05:16.207Z,32.00
2018-02-15T03:06:52.648Z,36.50
2018-02-15T03:08:29.934Z,39.25
2018-02-15T03:10:06.816Z,12.25
2018-02-15T03:11:43.139Z,17.75
2018-02-15T03:13:19.531Z,19.75
2018-02-15T03:14:55.884Z,6.25
2018-02-15T03:16:34.318Z,16.75
2018-02-15T03:18:10.660Z,10.00
2018-02-15T03:19:47.005Z,10.75
2018-02-15T03:21:23.738Z,9.75
2018-02-15T03:23:00.449Z,20.25
2018-02-15T03:24:38.191Z,20.25
2018-02-15T03:26:14.516Z,16.00
2018-02-15T03:27:50.814Z,17.00
2018-02-15T03:29:27.524Z,30.75
2018-02-15T03:31:04.473Z,15.25
2018-02-15T03:32:40.934Z,8.50
2018-02-15T03:34:17.336Z,36.75
2018-02-15T03:35:54.053Z,26.25
2018-02-15T03:37:31.230Z,44.75
2018-02-15T03:39:08.315Z,7.00
2018-02-15T03:40:45.406Z,11.50
2018-02-15T03:42:22.274Z,17.75
2018-02-15T03:43:59.354Z,31.50
2018-02-15T03:45:37.473Z,37.25
2018-02-15T03:47:14.586Z,11.75
2018-02-15T03:48:51.368Z,16.50
2018-02-15T03:50:27.807Z,32.75
2018-02-15T03:52:04.141Z,29.75
2018-02-15T03:53:40.494Z,19.00
2018-02-15T03:55:17.240Z,33.75
2018-02-15T03:56:53.634Z,39.50
2018-02-15T03:58:29.921Z,10.00
2018-02-15T04:00:06.400Z,28.00
2018-02-15T04:01:43.357Z,17.75
2018-02-15T04:03:19.676Z,11.25
2018-02-15T04:04:55.961Z,13.25
2018-02-15T04:06:32.309Z,11.25
2018-02-15T04:08:13.092Z,28.00
2018-02-15T04:09:49.402Z,11.75
2018-02-15T04:11:26.553Z,15.00
2018-02-15T04:13:02.879Z,35.50
2018-02-15T04:14:39.594Z,28.00
2018-02-15T04:16:16.111Z,24.50
2018-02-15T04:17:52.582Z,38.50
2018-02-15T04:19:29.872Z,22.75
2018-02-15T04:21:06.705Z,33.50
2018-02-15T04:22:43.372Z,41.00
2018-02-15T04:24:19.709Z,23.00
2018-02-15T04:25:56.218Z,13.75
2018-02-15T04:27:32.851Z,34.25
2018-02-15T04:29:09.156Z,48.25
2018-02-15T04:30:46.576Z,39.75
2018-02-15T04:32:22.935Z,40.50
2018-02-15T04:34:01.096Z,43.00
2018-02-15T04:35:38.187Z,37.75
2018-02-15T04:37:15.290Z,41.75
2018-02-15T04:38:51.547Z,52.50
2018-02-15T04:40:28.133Z,42.75
2018-02-15T04:42:05.258Z,20.25
2018-02-15T04:43:41.556Z,58.25
2018-02-15T04:45:19.187Z,47.00
2018-02-15T04:46:56.223Z,47.75
2018-02-15T04:50:04.553Z,22.50
2018-02-15T04:51:41.693Z,37.75
2018-02-15T04:53:18.337Z,59.75
2018-02-15T04:54:54.575Z,34.75
2018-02-15T04:56:30.821Z,57.00
2018-02-15T04:58:07.107Z,51.75
2018-02-15T04:59:44.736Z,69.50
2018-02-15T05:01:22.033Z,61.50
2018-02-15T05:02:58.397Z,52.00
2018-02-15T05:04:34.730Z,45.00
2018-02-15T05:06:11.473Z,39.25
2018-02-15T05:07:47.853Z,66.25
2018-02-15T05:09:25.049Z,56.75
2018-02-15T05:11:02.153Z,71.50
2018-02-15T05:12:39.381Z,61.75
2018-02-15T05:14:15.769Z,71.25
2018-02-15T05:15:52.543Z,59.75
2018-02-15T05:17:28.897Z,28.00
2018-02-15T05:19:05.658Z,72.75
2018-02-15T05:20:42.013Z,73.25
2018-02-15T05:22:18.339Z,50.75
2018-02-15T05:23:54.652Z,62.50
2018-02-15T05:25:32.165Z,59.50
2018-02-15T05:27:09.256Z,56.25
2018-02-15T05:28:46.352Z,70.75
2018-02-15T05:30:24.460Z,21.75
2018-02-15T05:32:01.269Z,102.00
2018-02-15T05:33:38.205Z,50.75
2018-02-15T05:35:14.561Z,54.25
2018-02-15T05:36:51.535Z,43.50
2018-02-15T05:38:29.114Z,75.25
2018-02-15T05:40:06.386Z,61.50
2018-02-15T05:41:42.911Z,72.50
2018-02-15T05:43:19.963Z,42.75
2018-02-15T05:44:56.356Z,87.25
2018-02-15T05:46:34.159Z,53.25
2018-02-15T05:48:10.472Z,75.75
2018-02-15T05:49:46.850Z,62.25
2018-02-15T05:51:23.602Z,66.25
2018-02-15T05:52:59.959Z,69.75
2018-02-15T05:54:37.317Z,32.25
2018-02-15T05:56:13.654Z,33.50
2018-02-15T05:57:51.194Z,51.75
2018-02-15T05:59:27.540Z,51.75
2018-02-15T06:01:04.145Z,54.00
2018-02-15T06:02:40.682Z,27.00
2018-02-15T06:04:17.431Z,46.25
2018-02-15T06:05:53.757Z,60.75
2018-02-15T06:07:30.036Z,51.75
2018-02-15T06:09:06.621Z,54.25
2018-02-15T06:10:44.168Z,32.50
2018-02-15T06:12:20.581Z,24.25
2018-02-15T06:13:56.922Z,35.50
2018-02-15T06:15:33.512Z,38.25
2018-02-15T06:17:10.371Z,38.00
2018-02-15T06:18:46.720Z,36.50
2018-02-15T06:20:23.083Z,28.00
2018-02-15T06:21:59.888Z,50.75
2018-02-15T06:23:37.453Z,41.50
2018-02-15T06:25:13.874Z,74.00
2018-02-15T06:26:51.044Z,15.75
2018-02-15T06:28:27.432Z,35.25
2018-02-15T06:30:05.251Z,12.50
2018-02-15T06:31:42.365Z,47.75
2018-02-15T06:33:18.745Z,62.25
2018-02-15T06:34:55.794Z,35.00
2018-02-15T06:36:32.677Z,50.75
2018-02-15T06:38:09.027Z,63.75
2018-02-15T06:39:45.573Z,26.75
2018-02-15T06:41:21.979Z,58.75
2018-02-15T06:42:58.870Z,49.75
2018-02-15T06:44:35.162Z,38.75
2018-02-15T06:46:12.464Z,38.25
2018-02-15T06:47:48.855Z,49.00
2018-02-15T06:49:25.649Z,51.75
2018-02-15T06:51:01.979Z,18.50
2018-02-15T06:54:22.249Z,17.50
2018-02-15T06:55:58.861Z,25.25
2018-02-15T06:57:35.344Z,29.00
2018-02-15T06:59:11.806Z,33.25
2018-02-15T07:00:48.475Z,24.75
2018-02-15T07:02:25.416Z,25.00
2018-02-15T07:04:01.948Z,37.75
2018-02-15T07:05:38.442Z,13.25
2018-02-15T07:07:15.537Z,52.00
2018-02-15T07:08:52.478Z,20.00
2018-02-15T07:10:28.910Z,26.25
2018-02-15T07:12:05.273Z,20.50
2018-02-15T07:13:42.491Z,20.50
2018-02-15T07:15:20.281Z,17.50
2018-02-15T07:16:57.718Z,27.25
2018-02-15T07:18:34.808Z,30.50
2018-02-15T07:20:12.006Z,19.75
2018-02-15T07:21:48.998Z,15.25
2018-02-15T07:23:25.334Z,10.50
2018-02-15T07:25:02.536Z,13.00
2018-02-15T07:26:39.611Z,38.25
2018-02-15T07:28:16.751Z,16.50
2018-02-15T07:29:53.320Z,20.25
2018-02-15T07:31:30.216Z,10.75
2018-02-15T07:33:07.372Z,15.25
2018-02-15T07:34:45.119Z,10.50
2018-02-15T07:36:21.516Z,19.00
2018-02-15T07:37:57.848Z,24.50
2018-02-15T07:39:34.684Z,22.75
2018-02-15T07:41:11.397Z,27.50
2018-02-15T07:42:48.551Z,18.25
2018-02-15T07:44:24.919Z,16.50
2018-02-15T07:46:01.542Z,27.75
2018-02-15T07:47:38.393Z,22.25
2018-02-15T07:49:15.625Z,22.25
2018-02-15T07:50:52.137Z,17.50
2018-02-15T07:52:29.445Z,52.25
2018-02-15T07:54:06.508Z,18.75
2018-02-15T07:55:43.042Z,24.25
2018-02-15T07:57:19.452Z,11.00
2018-02-15T07:58:55.986Z,35.00
2018-02-15T08:00:33.265Z,18.75
2018-02-15T08:02:09.786Z,16.50
2018-02-15T08:03:46.306Z,11.00
2018-02-15T08:05:23.568Z,21.75
2018-02-15T08:07:00.382Z,18.25
2018-02-15T08:08:36.756Z,19.50
2018-02-15T08:10:13.186Z,19.25
2018-02-15T08:11:49.649Z,12.00
2018-02-15T08:13:26.479Z,20.75
2018-02-15T08:15:03.000Z,22.50
2018-02-15T08:16:40.366Z,16.00
2018-02-15T08:18:16.709Z,17.50
2018-02-15T08:19:53.499Z,23.00
2018-02-15T08:21:29.969Z,14.50
2018-02-15T08:23:06.404Z,25.50
2018-02-15T08:24:42.773Z,16.25
2018-02-15T08:26:19.678Z,13.00
2018-02-15T08:27:56.153Z,14.50
2018-02-15T08:29:32.744Z,13.00
2018-02-15T08:31:10.146Z,19.75
2018-02-15T08:32:46.945Z,20.50
2018-02-15T08:34:23.343Z,28.25
2018-02-15T08:36:00.966Z,29.00
2018-02-15T08:37:37.553Z,11.75
2018-02-15T08:39:14.531Z,21.25
2018-02-15T08:40:50.789Z,44.50
2018-02-15T08:42:27.185Z,17.00
2018-02-15T08:44:03.773Z,11.75
2018-02-15T08:45:40.911Z,15.25
2018-02-15T08:47:17.246Z,15.50
2018-02-15T08:48:53.699Z,15.25
2018-02-15T08:50:30.085Z,20.75
2018-02-15T08:52:06.901Z,20.00
2018-02-15T08:53:44.854Z,20.00
2018-02-15T08:55:21.309Z,29.00
2018-02-15T08:56:58.459Z,9.00
2018-02-15T08:58:35.134Z,26.75
2018-02-15T09:00:12.136Z,7.50
2018-02-15T09:01:50.342Z,25.00
2018-02-15T09:03:28.180Z,18.75
2018-02-15T09:05:05.292Z,16.50
2018-02-15T09:06:41.703Z,11.00
2018-02-15T09:08:18.151Z,11.75
2018-02-15T09:09:54.542Z,15.50
2018-02-15T09:11:31.279Z,23.00
2018-02-15T09:13:08.446Z,19.50
2018-02-15T09:14:46.398Z,11.00
2018-02-15T09:16:23.211Z,19.00
2018-02-15T09:18:00.196Z,18.75
2018-02-15T09:19:37.125Z,37.75
2018-02-15T09:21:15.078Z,23.50
2018-02-15T09:22:52.516Z,19.75
2018-02-15T09:24:29.648Z,30.00
2018-02-15T09:26:06.897Z,17.25
2018-02-15T09:27:43.510Z,13.50
2018-02-15T09:29:20.085Z,17.75
2018-02-15T09:30:57.286Z,22.75
2018-02-15T09:32:34.314Z,18.50
2018-02-15T09:34:14.079Z,16.00
2018-02-15T09:35:51.203Z,16.00
2018-02-15T09:37:29.432Z,11.00
2018-02-15T09:39:06.040Z,23.00
2018-02-15T09:40:43.378Z,15.75
2018-02-15T09:42:19.782Z,30.25
2018-02-15T09:43:56.740Z,25.00
2018-02-15T09:45:33.653Z,17.00
2018-02-15T09:47:10.712Z,14.50
2018-02-15T09:48:47.067Z,17.00
2018-02-15T09:50:23.804Z,24.00
2018-02-15T09:52:00.131Z,18.00
2018-02-15T09:53:37.881Z,19.00
2018-02-15T09:55:14.214Z,14.50
2018-02-15T09:56:52.992Z,28.00
2018-02-15T09:58:29.704Z,16.00
2018-02-15T10:00:06.620Z,17.50
2018-02-15T10:01:43.481Z,21.50
2018-02-15T10:03:21.415Z,19.50
2018-02-15T10:04:58.452Z,24.50
2018-02-15T10:06:34.820Z,17.75
2018-02-15T10:08:11.061Z,11.00
2018-02-15T10:09:47.938Z,28.50
2018-02-15T10:11:24.261Z,17.75
2018-02-15T10:13:00.581Z,14.50
2018-02-15T10:14:36.857Z,34.50
2018-02-15T10:16:13.306Z,18.00
2018-02-15T10:17:50.496Z,19.75
2018-02-15T10:19:27.141Z,14.75
2018-02-15T10:21:03.788Z,25.00
2018-02-15T10:22:40.338Z,28.25
2018-02-15T10:24:16.613Z,20.50
2018-02-15T10:25:52.835Z,11.00
2018-02-15T10:27:30.107Z,14.00
2018-02-15T10:29:06.394Z,44.00
2018-02-15T10:30:43.389Z,24.50
2018-02-15T10:32:19.778Z,16.75
2018-02-15T10:33:56.455Z,18.75
2018-02-15T10:35:32.840Z,9.25
2018-02-15T10:37:09.275Z,22.00
2018-02-15T10:38:45.571Z,13.00
2018-02-15T10:40:22.424Z,17.00
2018-02-15T10:41:58.689Z,7.00
2018-02-15T10:43:35.013Z,16.50
2018-02-15T10:45:12.124Z,28.50
2018-02-15T10:46:51.805Z,15.00
2018-02-15T10:48:28.481Z,26.00
2018-02-15T10:50:05.710Z,27.00
2018-02-15T10:51:42.717Z,28.00
2018-02-15T10:53:19.407Z,29.00
2018-02-15T10:54:55.663Z,23.00
2018-02-15T10:56:32.529Z,26.00
2018-02-15T10:58:08.834Z,14.25
2018-02-15T10:59:45.515Z,11.00
2018-02-15T11:01:26.034Z,19.25
2018-02-15T11:03:06.262Z,26.75
2018-02-15T11:04:46.942Z,26.75
2018-02-15T11:06:23.728Z,29.75
2018-02-15T11:08:00.191Z,31.25
2018-02-15T11:09:36.747Z,11.75
2018-02-15T11:11:13.047Z,10.00
2018-02-15T11:12:49.758Z,17.25
2018-02-15T11:14:26.000Z,11.75
2018-02-15T11:16:02.678Z,18.25
2018-02-15T11:17:40.129Z,12.75
2018-02-15T11:19:16.872Z,13.00
2018-02-15T11:20:53.247Z,19.00
2018-02-15T11:22:29.802Z,17.25
2018-02-15T11:24:06.919Z,24.50
2018-02-15T11:25:44.271Z,27.00
2018-02-15T11:27:20.580Z,21.00
2018-02-15T11:28:58.486Z,26.00
2018-02-15T11:30:35.218Z,20.25
2018-02-15T11:32:11.979Z,27.75
2018-02-15T11:33:48.293Z,22.25
2018-02-15T11:35:24.833Z,27.75
2018-02-15T11:37:02.192Z,23.25
2018-02-15T11:38:38.989Z,23.75
2018-02-15T11:40:16.015Z,19.50
2018-02-15T11:41:52.809Z,21.00
2018-02-15T11:43:30.305Z,20.50
2018-02-15T11:45:08.289Z,23.50
2018-02-15T11:46:44.891Z,13.75
2018-02-15T11:48:21.996Z,10.00
2018-02-15T11:49:59.522Z,11.75
2018-02-15T11:51:36.501Z,10.00
2018-02-15T11:53:14.361Z,15.25
2018-02-15T11:54:52.571Z,13.25
2018-02-15T11:56:28.924Z,16.00
2018-02-15T11:58:05.962Z,14.50
2018-02-15T11:59:42.352Z,21.25
2018-02-15T12:01:19.772Z,33.50
2018-02-15T12:02:56.207Z,18.25
2018-02-15T12:04:33.873Z,14.00
2018-02-15T12:06:11.119Z,24.25
2018-02-15T12:07:47.564Z,19.75
2018-02-15T12:09:24.033Z,14.50
2018-02-15T12:11:01.231Z,24.50
2018-02-15T12:12:37.887Z,23.50
2018-02-15T12:14:14.405Z,7.75
2018-02-15T12:15:51.689Z,21.25
2018-02-15T12:17:29.210Z,12.50
2018-02-15T12:19:05.616Z,10.50
2018-02-15T12:20:42.111Z,10.50
2018-02-15T12:22:18.569Z,12.00
2018-02-15T12:23:57.373Z,6.00
2018-02-15T12:25:33.731Z,5.00
2018-02-15T12:27:10.051Z,8.00
2018-02-15T12:28:46.451Z,9.50
2018-02-15T12:30:26.305Z,21.50
2018-02-15T12:32:04.483Z,18.00
2018-02-15T12:33:41.140Z,12.50
2018-02-15T12:35:17.475Z,19.50
2018-02-15T12:36:54.514Z,14.75
2018-02-15T12:38:31.728Z,22.75
2018-02-15T12:40:08.122Z,16.50
2018-02-15T12:41:44.626Z,12.25
2018-02-15T12:43:22.231Z,14.00
2018-02-15T12:44:59.948Z,19.25
2018-02-15T12:46:36.831Z,14.75
2018-02-15T12:48:13.222Z,16.50
2018-02-15T12:49:50.009Z,16.50
2018-02-15T12:51:26.486Z,14.00
2018-02-15T12:53:03.886Z,22.25
2018-02-15T12:54:41.251Z,17.00
2018-02-15T12:56:17.596Z,20.75
2018-02-15T12:57:55.515Z,21.50
2018-02-15T12:59:32.397Z,20.00
2018-02-15T13:01:09.222Z,14.25
2018-02-15T13:02:46.016Z,9.50
2018-02-15T13:04:23.306Z,21.75
2018-02-15T13:05:59.822Z,23.25
2018-02-15T13:07:36.512Z,19.00
2018-02-15T13:09:13.465Z,16.25
2018-02-15T13:10:52.008Z,18.75
2018-02-15T13:12:44.040Z,14.75
2018-02-15T13:14:21.751Z,25.75
2018-02-15T13:17:08.995Z,16.25
2018-02-15T13:18:45.737Z,14.75
2018-02-15T13:20:23.098Z,17.50
2018-02-15T13:22:00.848Z,15.00
2018-02-15T13:23:37.891Z,14.00
2018-02-15T13:25:14.386Z,16.00
2018-02-15T13:26:52.364Z,19.50
2018-02-15T13:28:39.083Z,14.25
2018-02-15T13:30:18.239Z,17.25
2018-02-15T13:31:55.048Z,13.25
2018-02-15T13:33:31.678Z,12.50
2018-02-15T13:35:09.785Z,15.00
2018-02-15T13:36:46.379Z,11.00
2018-02-15T13:38:23.555Z,15.25
2018-02-15T13:40:00.779Z,10.25
2018-02-15T13:41:37.756Z,14.75
2018-02-15T13:43:14.147Z,9.25
2018-02-15T13:44:50.783Z,19.75
2018-02-15T13:46:27.383Z,15.75
2018-02-15T13:48:05.069Z,6.25
2018-02-15T13:49:42.272Z,17.00
2018-02-15T13:51:18.730Z,15.00
2018-02-15T13:52:55.791Z,22.50
2018-02-15T13:54:33.163Z,21.75
2018-02-15T13:56:10.362Z,16.00
2018-02-15T13:57:47.309Z,18.75
2018-02-15T13:59:24.860Z,21.75
2018-02-15T14:01:01.547Z,19.00
2018-02-15T14:02:38.587Z,16.75
2018-02-15T14:04:15.918Z,19.75
2018-02-15T14:05:53.334Z,9.75
2018-02-15T14:07:29.786Z,11.00
2018-02-15T14:09:07.039Z,15.50
2018-02-15T14:10:43.534Z,15.50
2018-02-15T14:12:20.240Z,17.50
2018-02-15T14:13:57.704Z,16.25
2018-02-15T14:15:34.783Z,16.75
2018-02-15T14:17:11.951Z,8.50
2018-02-15T14:18:48.878Z,16.75
2018-02-15T14:20:26.028Z,15.75
2018-02-15T14:22:04.309Z,19.50
2018-02-15T14:23:41.954Z,10.50
2018-02-15T14:25:18.894Z,22.00
2018-02-15T14:26:55.859Z,21.00
2018-02-15T14:28:33.880Z,11.50
2018-02-15T14:30:10.471Z,9.75
2018-02-15T14:31:48.328Z,10.25
2018-02-15T14:33:25.501Z,16.50
2018-02-15T14:35:04.057Z,18.25
2018-02-15T14:36:42.492Z,9.50
2018-02-15T14:38:24.548Z,15.00
2018-02-15T14:40:02.858Z,7.50
2018-02-15T14:41:40.493Z,12.50
2018-02-15T14:43:18.063Z,14.50
2018-02-15T14:44:54.852Z,15.00
2018-02-15T14:46:32.132Z,15.25
2018-02-15T14:49:47.611Z,17.50
2018-02-15T14:51:26.492Z,17.25
2018-02-15T14:53:05.613Z,17.50
2018-02-15T14:54:45.254Z,16.00
2018-02-15T14:56:25.007Z,17.75
2018-02-15T14:58:06.364Z,9.25
2018-02-15T14:59:44.596Z,8.00
2018-02-15T15:01:24.498Z,21.25
2018-02-15T15:03:04.798Z,6.25
2018-02-15T15:04:41.868Z,18.50
2018-02-15T15:06:21.073Z,15.50
2018-02-15T15:07:58.893Z,18.25
2018-02-15T15:09:38.028Z,13.00
2018-02-15T15:11:16.762Z,7.00
2018-02-15T15:12:54.514Z,15.00
2018-02-15T15:14:31.481Z,20.75
2018-02-15T15:16:13.479Z,14.25
2018-02-15T15:17:52.339Z,15.25
2018-02-15T15:19:29.277Z,6.75
2018-02-15T15:21:10.789Z,16.00
2018-02-15T15:22:49.255Z,19.25
2018-02-15T15:24:26.719Z,8.25
2018-02-15T15:26:04.399Z,19.25
2018-02-15T15:27:44.009Z,18.00
2018-02-15T15:29:22.631Z,13.00
2018-02-15T15:31:04.062Z,15.50
2018-02-15T15:32:44.653Z,12.50
2018-02-15T15:34:25.168Z,19.00
2018-02-15T15:36:17.333Z,16.00
2018-02-15T15:37:58.437Z,16.00
2018-02-15T15:39:37.420Z,14.00
2018-02-15T15:41:16.816Z,12.75
2018-02-15T15:42:57.283Z,15.75
2018-02-15T15:44:39.615Z,15.50
2018-02-15T15:46:19.645Z,17.50
2018-02-15T15:47:59.808Z,15.00
2018-02-15T15:49:38.398Z,16.75
2018-02-15T15:51:18.365Z,14.75
2018-02-15T15:52:58.334Z,15.25
2018-02-15T15:54:37.349Z,15.25
2018-02-15T15:56:16.193Z,18.00
2018-02-15T15:57:59.565Z,16.75
2018-02-15T15:59:39.759Z,14.75
2018-02-15T16:01:21.528Z,20.75
2018-02-15T16:03:01.725Z,21.25
2018-02-15T16:04:42.086Z,16.50
2018-02-15T16:06:23.025Z,17.75
2018-02-15T16:08:03.121Z,15.75
2018-02-15T16:09:44.415Z,19.75
2018-02-15T16:11:24.693Z,14.25
2018-02-15T16:13:04.398Z,13.00
2018-02-15T16:14:46.485Z,15.25
2018-02-15T16:16:25.869Z,22.50
2018-02-15T16:18:06.566Z,21.75
2018-02-15T16:19:47.316Z,10.00
2018-02-15T16:21:28.565Z,12.75
2018-02-15T16:23:08.869Z,18.00
2018-02-15T16:24:50.130Z,12.00
2018-02-15T16:26:30.580Z,19.00
2018-02-15T16:28:12.049Z,17.75
2018-02-15T16:29:51.053Z,18.50
2018-02-15T16:31:35.099Z,15.25
2018-02-15T16:33:15.860Z,19.25
2018-02-15T16:34:58.556Z,13.00
2018-02-15T16:36:39.895Z,16.00
2018-02-15T16:38:20.594Z,19.50
2018-02-15T16:40:05.340Z,15.50
2018-02-15T16:41:47.307Z,14.00
2018-02-15T16:43:26.205Z,17.75
2018-02-15T16:45:11.499Z,18.25
2018-02-15T16:46:51.644Z,16.50
2018-02-15T16:48:33.276Z,5.25
2018-02-15T16:50:13.065Z,15.25
2018-02-15T16:51:57.604Z,20.25
2018-02-15T16:53:37.743Z,21.50
2018-02-15T16:55:19.471Z,17.00
2018-02-15T16:56:58.624Z,19.25
2018-02-15T16:58:38.992Z,16.25
2018-02-15T17:00:20.562Z,18.50
2018-02-15T17:02:01.304Z,13.75
2018-02-15T17:03:47.822Z,15.25
2018-02-15T17:11:19.412Z,13.00
2018-02-15T17:13:01.335Z,21.00
2018-02-15T17:14:42.479Z,20.75
2018-02-15T17:16:24.606Z,17.25
2018-02-15T17:18:03.918Z,17.50
2018-02-15T17:19:44.869Z,20.25
2018-02-15T17:21:25.478Z,19.00
2018-02-15T17:23:10.598Z,22.75
2018-02-15T17:24:50.207Z,21.25
2018-02-15T17:26:30.984Z,19.75
2018-02-15T17:28:11.467Z,20.75
2018-02-15T17:29:53.280Z,18.75
2018-02-15T17:31:32.504Z,18.00
2018-02-15T17:33:11.608Z,19.50
2018-02-15T17:34:55.180Z,22.25
2018-02-15T17:36:37.198Z,17.50
2018-02-15T17:38:20.690Z,17.50
2018-02-15T17:40:04.943Z,18.00
2018-02-15T17:41:55.719Z,22.00
2018-02-15T17:43:38.589Z,23.50
2018-02-15T17:45:21.534Z,18.75
2018-02-15T17:47:13.058Z,24.25
2018-02-15T17:48:56.136Z,22.25
2018-02-15T17:50:44.772Z,25.25
2018-02-15T17:52:50.111Z,24.00
2018-02-15T17:54:36.878Z,23.50
2018-02-15T17:56:20.662Z,24.75
2018-02-15T17:58:04.575Z,17.75
2018-02-15T17:59:51.533Z,17.75
2018-02-15T18:01:42.410Z,26.00
2018-02-15T18:03:29.374Z,27.75
2018-02-15T18:05:28.894Z,27.75
2018-02-15T18:07:11.140Z,24.75
2018-02-15T18:10:30.114Z,22.25
2018-02-15T18:12:13.158Z,23.00
2018-02-15T18:13:54.837Z,24.75
2018-02-15T18:16:02.444Z,18.00
2018-02-15T18:19:44.933Z,20.50
2018-02-15T18:23:21.632Z,18.25
2018-02-15T18:25:05.129Z,23.75
2018-02-15T18:26:47.395Z,23.25
2018-02-15T18:28:34.035Z,25.50
2018-02-15T18:30:18.236Z,26.00
2018-02-15T18:32:03.503Z,27.25
2018-02-15T18:33:48.248Z,29.25
2018-02-15T18:35:34.919Z,26.25
2018-02-15T18:37:16.010Z,25.25
2018-02-15T18:38:57.351Z,25.00
2018-02-15T18:40:40.617Z,26.25
2018-02-15T18:42:22.860Z,26.75
2018-02-15T18:44:06.302Z,26.75
2018-02-15T18:45:52.379Z,24.50
2018-02-15T18:47:35.274Z,23.25
2018-02-15T18:49:25.917Z,19.50
2018-02-15T18:51:11.690Z,19.25
2018-02-15T18:52:59.257Z,20.75
2018-02-15T18:54:44.169Z,19.75
2018-02-15T18:56:28.347Z,21.75
2018-02-15T18:58:12.877Z,18.00
2018-02-15T18:59:54.133Z,22.75
2018-02-15T19:01:36.554Z,19.25
2018-02-15T19:03:20.899Z,21.00
2018-02-15T19:05:02.918Z,22.75
2018-02-15T19:06:48.024Z,18.25
2018-02-15T19:08:30.537Z,22.00
2018-02-15T19:10:13.592Z,21.50
2018-02-15T19:11:58.583Z,23.50
2018-02-15T19:13:41.734Z,20.25
2018-02-15T19:15:27.741Z,18.25
2018-02-15T19:17:14.643Z,19.75
2018-02-15T19:18:56.974Z,22.75
2018-02-15T19:20:55.721Z,21.50
2018-02-15T19:22:48.588Z,25.75
2018-02-15T19:24:49.568Z,23.75
2018-02-15T19:26:31.920Z,25.25
2018-02-15T19:28:17.378Z,25.25
2018-02-15T19:30:00.015Z,19.25
2018-02-15T19:31:42.978Z,24.00
2018-02-15T19:33:24.291Z,19.50
2018-02-15T19:35:05.825Z,21.25
2018-02-15T19:36:50.947Z,21.75
2018-02-15T19:38:34.758Z,22.50
2018-02-15T19:40:20.196Z,20.25
2018-02-15T19:42:03.455Z,20.00
2018-02-15T19:43:46.918Z,18.00
2018-02-15T19:45:32.710Z,20.25
2018-02-15T19:47:11.542Z,23.25
2018-02-15T19:48:53.921Z,21.25
2018-02-15T19:50:36.454Z,24.00
2018-02-15T19:52:19.303Z,21.00
2018-02-15T19:54:04.530Z,18.75
2018-02-15T19:55:56.273Z,22.50
2018-02-15T19:57:47.547Z,17.25
2018-02-15T19:59:35.087Z,22.25
2018-02-15T20:01:17.201Z,21.50
2018-02-15T20:02:59.107Z,24.25
2018-02-15T20:04:40.645Z,22.75
2018-02-15T20:06:23.690Z,22.50
2018-02-15T20:08:08.552Z,20.75
2018-02-15T20:09:50.484Z,20.75
2018-02-15T20:11:32.364Z,23.25
2018-02-15T20:13:16.030Z,24.25
2018-02-15T20:14:57.782Z,24.25
2018-02-15T20:16:41.186Z,25.50
2018-02-15T20:18:21.107Z,29.00
2018-02-15T20:20:05.465Z,20.75
2018-02-15T20:21:46.493Z,26.00
2018-02-15T20:23:34.478Z,31.25
2018-02-15T20:25:15.190Z,27.25
2018-02-15T20:26:59.861Z,31.50
2018-02-15T20:28:41.212Z,28.00
2018-02-15T20:30:24.638Z,25.75
2018-02-15T20:32:11.704Z,30.50
2018-02-15T20:33:56.032Z,27.75
2018-02-15T20:35:40.043Z,28.00
2018-02-15T20:37:23.401Z,22.75
2018-02-15T20:41:14.484Z,22.75
2018-02-15T20:42:53.250Z,25.00
2018-02-15T20:44:35.208Z,23.50
2018-02-15T20:46:22.802Z,25.75
2018-02-15T20:48:03.114Z,22.00
2018-02-15T20:49:48.080Z,18.50
2018-02-15T20:55:51.600Z,23.00
2018-02-15T20:57:34.529Z,20.00
2018-02-15T20:59:24.388Z,20.75
2018-02-15T21:01:05.832Z,23.75
2018-02-15T21:02:50.283Z,23.75
2018-02-15T21:04:34.895Z,27.00
2018-02-15T21:06:18.246Z,29.50
2018-02-15T21:08:15.104Z,26.00
2018-02-15T21:09:55.579Z,24.25
2018-02-15T21:11:35.925Z,25.75
2018-02-15T21:13:15.661Z,27.75
2018-02-15T21:14:53.733Z,28.75
2018-02-15T21:16:32.646Z,29.25
2018-02-15T21:18:13.299Z,25.75
2018-02-15T21:19:55.229Z,26.75
2018-02-15T21:21:35.984Z,27.50
2018-02-15T21:23:15.699Z,26.75
2018-02-15T21:24:56.711Z,27.25
2018-02-15T21:26:36.119Z,27.50
2018-02-15T21:28:17.286Z,28.00
2018-02-15T21:29:57.220Z,27.25
2018-02-15T21:31:36.814Z,25.75
2018-02-15T21:33:15.685Z,27.50
2018-02-15T21:34:54.562Z,29.25
2018-02-15T21:36:35.115Z,32.00
2018-02-15T21:38:13.831Z,28.00
2018-02-15T21:39:52.646Z,30.50
2018-02-15T21:41:32.392Z,28.00
2018-02-15T21:43:12.358Z,26.00